sensor_id;sensor_type;location;lat;lon;timestamp;P1;durP1;ratioP1;P2;durP2;ratioP2
37851;SDS011;23691;52.486;4.650;2023-08-30T00:00:50;7.60;;;2.80;;
37851;SDS011;23691;52.486;4.650;2023-08-30T00:03:17;8.95;;;2.90;;
37851;SDS011;23691;52.486;4.650;2023-08-30T00:05:42;7.18;;;2.55;;
37851;SDS011;23691;52.486;4.650;2023-08-30T00:08:10;7.97;;;2.65;;
37851;SDS011;23691;52.486;4.650;2023-08-30T00:10:38;7.47;;;2.85;;
37851;SDS011;23691;52.486;4.650;2023-08-30T00:13:13;8.30;;;3.15;;
37851;SDS011;23691;52.486;4.650;2023-08-30T00:15:45;7.63;;;2.85;;
37851;SDS011;23691;52.486;4.650;2023-08-30T00:18:13;7.70;;;2.80;;
37851;SDS011;23691;52.486;4.650;2023-08-30T00:20:41;8.02;;;2.90;;
37851;SDS011;23691;52.486;4.650;2023-08-30T00:25:32;7.85;;;2.65;;
37851;SDS011;23691;52.486;4.650;2023-08-30T00:27:58;7.85;;;3.00;;
37851;SDS011;23691;52.486;4.650;2023-08-30T00:30:23;8.93;;;3.25;;
37851;SDS011;23691;52.486;4.650;2023-08-30T00:32:49;8.43;;;3.00;;
37851;SDS011;23691;52.486;4.650;2023-08-30T00:35:14;8.57;;;3.22;;
37851;SDS011;23691;52.486;4.650;2023-08-30T00:37:40;7.25;;;2.65;;
37851;SDS011;23691;52.486;4.650;2023-08-30T00:40:06;8.38;;;3.15;;
37851;SDS011;23691;52.486;4.650;2023-08-30T00:42:32;9.43;;;3.30;;
37851;SDS011;23691;52.486;4.650;2023-08-30T00:44:57;9.50;;;3.15;;
37851;SDS011;23691;52.486;4.650;2023-08-30T00:47:25;6.57;;;2.50;;
37851;SDS011;23691;52.486;4.650;2023-08-30T00:49:51;7.28;;;2.90;;
37851;SDS011;23691;52.486;4.650;2023-08-30T00:52:16;7.85;;;3.00;;
37851;SDS011;23691;52.486;4.650;2023-08-30T00:54:42;7.85;;;3.25;;
37851;SDS011;23691;52.486;4.650;2023-08-30T00:57:08;8.68;;;3.30;;
37851;SDS011;23691;52.486;4.650;2023-08-30T00:59:34;9.50;;;3.00;;
37851;SDS011;23691;52.486;4.650;2023-08-30T01:02:00;9.27;;;3.30;;
37851;SDS011;23691;52.486;4.650;2023-08-30T01:04:27;8.27;;;3.00;;
37851;SDS011;23691;52.486;4.650;2023-08-30T01:06:53;9.27;;;3.33;;
37851;SDS011;23691;52.486;4.650;2023-08-30T01:09:18;10.32;;;3.45;;
37851;SDS011;23691;52.486;4.650;2023-08-30T01:14:26;9.48;;;3.50;;
37851;SDS011;23691;52.486;4.650;2023-08-30T01:16:56;10.90;;;3.25;;
37851;SDS011;23691;52.486;4.650;2023-08-30T01:19:28;8.77;;;3.33;;
37851;SDS011;23691;52.486;4.650;2023-08-30T01:22:10;10.70;;;3.55;;
37851;SDS011;23691;52.486;4.650;2023-08-30T01:24:55;8.98;;;2.92;;
37851;SDS011;23691;52.486;4.650;2023-08-30T01:27:43;8.27;;;3.30;;
37851;SDS011;23691;52.486;4.650;2023-08-30T01:30:10;9.27;;;3.40;;
37851;SDS011;23691;52.486;4.650;2023-08-30T01:32:37;7.68;;;2.80;;
37851;SDS011;23691;52.486;4.650;2023-08-30T01:35:04;9.15;;;3.35;;
37851;SDS011;23691;52.486;4.650;2023-08-30T01:37:31;10.50;;;3.30;;
37851;SDS011;23691;52.486;4.650;2023-08-30T01:39:58;9.70;;;3.50;;
37851;SDS011;23691;52.486;4.650;2023-08-30T01:42:25;7.63;;;3.40;;
37851;SDS011;23691;52.486;4.650;2023-08-30T01:44:52;8.95;;;3.00;;
37851;SDS011;23691;52.486;4.650;2023-08-30T01:47:23;10.15;;;3.60;;
37851;SDS011;23691;52.486;4.650;2023-08-30T01:49:55;9.77;;;3.00;;
37851;SDS011;23691;52.486;4.650;2023-08-30T01:52:23;9.02;;;3.60;;
37851;SDS011;23691;52.486;4.650;2023-08-30T01:54:51;9.70;;;3.53;;
37851;SDS011;23691;52.486;4.650;2023-08-30T01:57:18;9.13;;;3.42;;
37851;SDS011;23691;52.486;4.650;2023-08-30T01:59:44;10.07;;;3.53;;
37851;SDS011;23691;52.486;4.650;2023-08-30T02:02:09;8.70;;;3.35;;
37851;SDS011;23691;52.486;4.650;2023-08-30T02:04:35;8.93;;;3.58;;
37851;SDS011;23691;52.486;4.650;2023-08-30T02:07:04;8.90;;;3.28;;
37851;SDS011;23691;52.486;4.650;2023-08-30T02:12:27;9.82;;;3.90;;
37851;SDS011;23691;52.486;4.650;2023-08-30T02:15:00;9.65;;;3.60;;
37851;SDS011;23691;52.486;4.650;2023-08-30T02:17:27;11.68;;;4.07;;
37851;SDS011;23691;52.486;4.650;2023-08-30T02:19:55;8.88;;;3.40;;
37851;SDS011;23691;52.486;4.650;2023-08-30T02:22:21;11.27;;;3.72;;
37851;SDS011;23691;52.486;4.650;2023-08-30T02:24:46;12.73;;;4.18;;
37851;SDS011;23691;52.486;4.650;2023-08-30T02:27:12;11.07;;;4.00;;
37851;SDS011;23691;52.486;4.650;2023-08-30T02:29:37;10.18;;;3.72;;
37851;SDS011;23691;52.486;4.650;2023-08-30T02:32:03;10.15;;;3.63;;
37851;SDS011;23691;52.486;4.650;2023-08-30T02:34:28;9.88;;;3.72;;
37851;SDS011;23691;52.486;4.650;2023-08-30T02:36:54;10.13;;;4.03;;
37851;SDS011;23691;52.486;4.650;2023-08-30T02:39:20;10.05;;;3.90;;
37851;SDS011;23691;52.486;4.650;2023-08-30T02:41:45;11.02;;;3.95;;
37851;SDS011;23691;52.486;4.650;2023-08-30T02:44:11;10.73;;;3.80;;
37851;SDS011;23691;52.486;4.650;2023-08-30T02:46:37;9.18;;;3.75;;
37851;SDS011;23691;52.486;4.650;2023-08-30T02:49:06;9.50;;;4.05;;
37851;SDS011;23691;52.486;4.650;2023-08-30T02:51:32;9.23;;;4.25;;
37851;SDS011;23691;52.486;4.650;2023-08-30T02:53:57;9.63;;;3.60;;
37851;SDS011;23691;52.486;4.650;2023-08-30T02:56:23;11.15;;;4.30;;
37851;SDS011;23691;52.486;4.650;2023-08-30T02:58:50;10.02;;;4.25;;
37851;SDS011;23691;52.486;4.650;2023-08-30T03:01:18;12.15;;;4.45;;
37851;SDS011;23691;52.486;4.650;2023-08-30T03:06:10;10.20;;;4.15;;
37851;SDS011;23691;52.486;4.650;2023-08-30T03:08:36;10.10;;;4.10;;
37851;SDS011;23691;52.486;4.650;2023-08-30T03:11:13;10.20;;;4.50;;
37851;SDS011;23691;52.486;4.650;2023-08-30T03:13:39;12.40;;;4.57;;
37851;SDS011;23691;52.486;4.650;2023-08-30T03:16:11;10.75;;;4.78;;
37851;SDS011;23691;52.486;4.650;2023-08-30T03:18:38;12.05;;;4.43;;
37851;SDS011;23691;52.486;4.650;2023-08-30T03:21:09;12.88;;;4.40;;
37851;SDS011;23691;52.486;4.650;2023-08-30T03:23:38;12.60;;;4.90;;
37851;SDS011;23691;52.486;4.650;2023-08-30T03:26:11;12.95;;;5.03;;
37851;SDS011;23691;52.486;4.650;2023-08-30T03:28:37;11.18;;;4.70;;
37851;SDS011;23691;52.486;4.650;2023-08-30T03:31:14;13.27;;;5.20;;
37851;SDS011;23691;52.486;4.650;2023-08-30T03:33:43;12.13;;;5.43;;
37851;SDS011;23691;52.486;4.650;2023-08-30T03:36:12;12.52;;;5.50;;
37851;SDS011;23691;52.486;4.650;2023-08-30T03:38:45;14.07;;;6.18;;
37851;SDS011;23691;52.486;4.650;2023-08-30T03:41:11;13.93;;;6.13;;
37851;SDS011;23691;52.486;4.650;2023-08-30T03:43:37;13.98;;;5.90;;
37851;SDS011;23691;52.486;4.650;2023-08-30T03:46:03;11.55;;;5.70;;
37851;SDS011;23691;52.486;4.650;2023-08-30T03:48:29;16.38;;;6.20;;
37851;SDS011;23691;52.486;4.650;2023-08-30T03:50:57;15.00;;;6.18;;
37851;SDS011;23691;52.486;4.650;2023-08-30T03:53:23;15.25;;;6.68;;
37851;SDS011;23691;52.486;4.650;2023-08-30T03:55:49;13.20;;;5.93;;
37851;SDS011;23691;52.486;4.650;2023-08-30T03:58:15;14.00;;;6.30;;
37851;SDS011;23691;52.486;4.650;2023-08-30T04:00:43;14.07;;;6.50;;
37851;SDS011;23691;52.486;4.650;2023-08-30T04:03:09;14.70;;;6.90;;
37851;SDS011;23691;52.486;4.650;2023-08-30T04:05:38;13.70;;;6.53;;
37851;SDS011;23691;52.486;4.650;2023-08-30T04:08:04;14.60;;;7.03;;
37851;SDS011;23691;52.486;4.650;2023-08-30T04:10:37;12.65;;;6.30;;
37851;SDS011;23691;52.486;4.650;2023-08-30T04:13:03;15.02;;;6.53;;
37851;SDS011;23691;52.486;4.650;2023-08-30T04:15:32;13.00;;;6.75;;
37851;SDS011;23691;52.486;4.650;2023-08-30T04:18:02;15.27;;;6.90;;
37851;SDS011;23691;52.486;4.650;2023-08-30T04:20:28;14.23;;;6.90;;
37851;SDS011;23691;52.486;4.650;2023-08-30T04:22:54;13.38;;;6.88;;
37851;SDS011;23691;52.486;4.650;2023-08-30T04:25:22;15.77;;;7.25;;
37851;SDS011;23691;52.486;4.650;2023-08-30T04:27:47;13.13;;;6.15;;
37851;SDS011;23691;52.486;4.650;2023-08-30T04:30:13;14.73;;;7.00;;
37851;SDS011;23691;52.486;4.650;2023-08-30T04:32:39;14.60;;;6.45;;
37851;SDS011;23691;52.486;4.650;2023-08-30T04:35:05;16.00;;;6.82;;
37851;SDS011;23691;52.486;4.650;2023-08-30T04:37:31;16.20;;;6.88;;
37851;SDS011;23691;52.486;4.650;2023-08-30T04:39:57;14.05;;;7.10;;
37851;SDS011;23691;52.486;4.650;2023-08-30T04:42:22;13.85;;;7.00;;
37851;SDS011;23691;52.486;4.650;2023-08-30T04:44:48;14.90;;;7.10;;
37851;SDS011;23691;52.486;4.650;2023-08-30T04:47:13;15.30;;;6.85;;
37851;SDS011;23691;52.486;4.650;2023-08-30T04:49:39;13.77;;;6.63;;
37851;SDS011;23691;52.486;4.650;2023-08-30T04:52:05;14.18;;;6.07;;
37851;SDS011;23691;52.486;4.650;2023-08-30T04:54:31;14.40;;;6.68;;
37851;SDS011;23691;52.486;4.650;2023-08-30T04:56:56;14.25;;;7.43;;
37851;SDS011;23691;52.486;4.650;2023-08-30T04:59:22;14.70;;;6.90;;
37851;SDS011;23691;52.486;4.650;2023-08-30T05:01:47;13.38;;;6.57;;
37851;SDS011;23691;52.486;4.650;2023-08-30T05:04:13;16.92;;;6.90;;
37851;SDS011;23691;52.486;4.650;2023-08-30T05:06:39;16.98;;;7.43;;
37851;SDS011;23691;52.486;4.650;2023-08-30T05:09:04;13.85;;;7.13;;
37851;SDS011;23691;52.486;4.650;2023-08-30T05:11:31;15.73;;;7.63;;
37851;SDS011;23691;52.486;4.650;2023-08-30T05:13:56;15.70;;;7.65;;
37851;SDS011;23691;52.486;4.650;2023-08-30T05:16:22;13.57;;;6.63;;
37851;SDS011;23691;52.486;4.650;2023-08-30T05:18:47;14.85;;;7.38;;
37851;SDS011;23691;52.486;4.650;2023-08-30T05:21:13;14.70;;;7.30;;
37851;SDS011;23691;52.486;4.650;2023-08-30T05:23:40;14.75;;;6.72;;
37851;SDS011;23691;52.486;4.650;2023-08-30T05:26:10;12.60;;;6.55;;
37851;SDS011;23691;52.486;4.650;2023-08-30T05:28:37;14.25;;;6.57;;
37851;SDS011;23691;52.486;4.650;2023-08-30T05:31:03;12.25;;;6.50;;
37851;SDS011;23691;52.486;4.650;2023-08-30T05:33:29;14.73;;;6.50;;
37851;SDS011;23691;52.486;4.650;2023-08-30T05:35:57;14.27;;;6.25;;
37851;SDS011;23691;52.486;4.650;2023-08-30T05:38:23;13.50;;;6.38;;
37851;SDS011;23691;52.486;4.650;2023-08-30T05:40:48;12.57;;;6.03;;
37851;SDS011;23691;52.486;4.650;2023-08-30T05:43:17;12.73;;;6.07;;
37851;SDS011;23691;52.486;4.650;2023-08-30T05:45:43;14.68;;;6.05;;
37851;SDS011;23691;52.486;4.650;2023-08-30T05:48:11;12.02;;;5.30;;
37851;SDS011;23691;52.486;4.650;2023-08-30T05:50:37;16.58;;;5.82;;
37851;SDS011;23691;52.486;4.650;2023-08-30T05:53:03;11.68;;;5.78;;
37851;SDS011;23691;52.486;4.650;2023-08-30T05:55:29;12.98;;;5.63;;
37851;SDS011;23691;52.486;4.650;2023-08-30T05:57:54;11.32;;;5.40;;
37851;SDS011;23691;52.486;4.650;2023-08-30T06:00:22;12.23;;;5.50;;
37851;SDS011;23691;52.486;4.650;2023-08-30T06:02:57;12.40;;;5.68;;
37851;SDS011;23691;52.486;4.650;2023-08-30T06:05:22;11.45;;;5.72;;
37851;SDS011;23691;52.486;4.650;2023-08-30T06:07:48;15.35;;;6.68;;
37851;SDS011;23691;52.486;4.650;2023-08-30T06:10:13;14.13;;;5.88;;
37851;SDS011;23691;52.486;4.650;2023-08-30T06:12:42;13.98;;;6.30;;
37851;SDS011;23691;52.486;4.650;2023-08-30T06:15:08;14.82;;;6.50;;
37851;SDS011;23691;52.486;4.650;2023-08-30T06:17:36;15.02;;;6.65;;
37851;SDS011;23691;52.486;4.650;2023-08-30T06:20:04;18.48;;;6.78;;
37851;SDS011;23691;52.486;4.650;2023-08-30T06:22:34;12.40;;;6.05;;
37851;SDS011;23691;52.486;4.650;2023-08-30T06:25:10;16.90;;;6.68;;
37851;SDS011;23691;52.486;4.650;2023-08-30T06:27:41;14.10;;;6.22;;
37851;SDS011;23691;52.486;4.650;2023-08-30T06:30:09;15.77;;;6.63;;
37851;SDS011;23691;52.486;4.650;2023-08-30T06:32:36;14.88;;;6.45;;
37851;SDS011;23691;52.486;4.650;2023-08-30T06:35:11;14.73;;;6.95;;
37851;SDS011;23691;52.486;4.650;2023-08-30T06:37:37;15.75;;;6.57;;
37851;SDS011;23691;52.486;4.650;2023-08-30T06:40:03;14.82;;;6.80;;
37851;SDS011;23691;52.486;4.650;2023-08-30T06:42:29;13.35;;;6.68;;
37851;SDS011;23691;52.486;4.650;2023-08-30T06:44:58;14.23;;;7.63;;
37851;SDS011;23691;52.486;4.650;2023-08-30T06:47:29;15.73;;;7.00;;
37851;SDS011;23691;52.486;4.650;2023-08-30T06:49:55;17.05;;;8.25;;
37851;SDS011;23691;52.486;4.650;2023-08-30T06:52:25;13.75;;;7.13;;
37851;SDS011;23691;52.486;4.650;2023-08-30T06:55:00;15.80;;;7.82;;
37851;SDS011;23691;52.486;4.650;2023-08-30T06:57:26;14.00;;;7.45;;
37851;SDS011;23691;52.486;4.650;2023-08-30T06:59:58;15.82;;;7.70;;
37851;SDS011;23691;52.486;4.650;2023-08-30T07:02:35;17.92;;;7.90;;
37851;SDS011;23691;52.486;4.650;2023-08-30T07:05:02;15.68;;;7.50;;
37851;SDS011;23691;52.486;4.650;2023-08-30T07:07:30;15.43;;;7.85;;
37851;SDS011;23691;52.486;4.650;2023-08-30T07:09:56;18.92;;;7.75;;
37851;SDS011;23691;52.486;4.650;2023-08-30T07:12:22;14.02;;;7.47;;
37851;SDS011;23691;52.486;4.650;2023-08-30T07:14:49;13.18;;;6.93;;
37851;SDS011;23691;52.486;4.650;2023-08-30T07:17:15;14.95;;;7.63;;
37851;SDS011;23691;52.486;4.650;2023-08-30T07:19:40;13.73;;;7.30;;
37851;SDS011;23691;52.486;4.650;2023-08-30T07:22:06;16.10;;;7.20;;
37851;SDS011;23691;52.486;4.650;2023-08-30T07:24:31;13.35;;;7.20;;
37851;SDS011;23691;52.486;4.650;2023-08-30T07:27:05;13.88;;;6.97;;
37851;SDS011;23691;52.486;4.650;2023-08-30T07:29:35;14.10;;;7.03;;
37851;SDS011;23691;52.486;4.650;2023-08-30T07:32:01;13.27;;;7.15;;
37851;SDS011;23691;52.486;4.650;2023-08-30T07:34:27;14.30;;;7.03;;
37851;SDS011;23691;52.486;4.650;2023-08-30T07:36:56;14.43;;;7.20;;
37851;SDS011;23691;52.486;4.650;2023-08-30T07:39:21;12.27;;;6.63;;
37851;SDS011;23691;52.486;4.650;2023-08-30T07:41:52;11.65;;;6.25;;
37851;SDS011;23691;52.486;4.650;2023-08-30T07:44:23;14.02;;;6.50;;
37851;SDS011;23691;52.486;4.650;2023-08-30T07:46:51;14.57;;;6.53;;
37851;SDS011;23691;52.486;4.650;2023-08-30T07:49:22;12.75;;;6.53;;
37851;SDS011;23691;52.486;4.650;2023-08-30T07:51:47;13.15;;;6.57;;
37851;SDS011;23691;52.486;4.650;2023-08-30T07:54:13;14.00;;;6.47;;
37851;SDS011;23691;52.486;4.650;2023-08-30T07:56:45;12.38;;;6.43;;
37851;SDS011;23691;52.486;4.650;2023-08-30T07:59:13;11.15;;;5.25;;
37851;SDS011;23691;52.486;4.650;2023-08-30T08:01:41;12.52;;;5.57;;
37851;SDS011;23691;52.486;4.650;2023-08-30T08:04:21;12.23;;;5.75;;
37851;SDS011;23691;52.486;4.650;2023-08-30T08:06:51;11.85;;;5.68;;
37851;SDS011;23691;52.486;4.650;2023-08-30T08:12:59;10.27;;;4.78;;
37851;SDS011;23691;52.486;4.650;2023-08-30T08:15:35;11.13;;;5.13;;
37851;SDS011;23691;52.486;4.650;2023-08-30T08:18:47;11.93;;;5.37;;
37851;SDS011;23691;52.486;4.650;2023-08-30T08:21:57;11.00;;;4.95;;
37851;SDS011;23691;52.486;4.650;2023-08-30T08:24:32;9.60;;;5.03;;
37851;SDS011;23691;52.486;4.650;2023-08-30T08:27:07;10.63;;;5.20;;
37851;SDS011;23691;52.486;4.650;2023-08-30T08:30:25;10.40;;;4.65;;
37851;SDS011;23691;52.486;4.650;2023-08-30T08:40:02;10.57;;;5.05;;
37851;SDS011;23691;52.486;4.650;2023-08-30T08:42:38;11.52;;;4.93;;
37851;SDS011;23691;52.486;4.650;2023-08-30T08:45:06;9.98;;;4.63;;
37851;SDS011;23691;52.486;4.650;2023-08-30T08:47:45;7.93;;;3.55;;
37851;SDS011;23691;52.486;4.650;2023-08-30T08:50:12;8.73;;;3.13;;
37851;SDS011;23691;52.486;4.650;2023-08-30T08:52:41;6.07;;;2.03;;
37851;SDS011;23691;52.486;4.650;2023-08-30T08:55:08;4.90;;;1.63;;
37851;SDS011;23691;52.486;4.650;2023-08-30T08:57:37;6.20;;;1.70;;
37851;SDS011;23691;52.486;4.650;2023-08-30T09:00:04;4.20;;;1.27;;
37851;SDS011;23691;52.486;4.650;2023-08-30T09:05:08;5.40;;;1.40;;
37851;SDS011;23691;52.486;4.650;2023-08-30T09:07:39;3.30;;;1.20;;
37851;SDS011;23691;52.486;4.650;2023-08-30T09:10:05;8.07;;;1.10;;
37851;SDS011;23691;52.486;4.650;2023-08-30T09:12:34;5.50;;;1.10;;
37851;SDS011;23691;52.486;4.650;2023-08-30T09:15:15;4.80;;;1.23;;
37851;SDS011;23691;52.486;4.650;2023-08-30T09:17:46;4.68;;;1.17;;
37851;SDS011;23691;52.486;4.650;2023-08-30T09:20:15;4.95;;;1.05;;
37851;SDS011;23691;52.486;4.650;2023-08-30T09:22:41;4.13;;;1.30;;
37851;SDS011;23691;52.486;4.650;2023-08-30T09:25:10;6.50;;;1.47;;
37851;SDS011;23691;52.486;4.650;2023-08-30T09:27:48;4.40;;;1.20;;
37851;SDS011;23691;52.486;4.650;2023-08-30T09:30:22;6.50;;;1.48;;
37851;SDS011;23691;52.486;4.650;2023-08-30T09:35:28;8.40;;;1.52;;
37851;SDS011;23691;52.486;4.650;2023-08-30T09:37:53;7.75;;;1.95;;
37851;SDS011;23691;52.486;4.650;2023-08-30T09:40:20;10.50;;;2.08;;
37851;SDS011;23691;52.486;4.650;2023-08-30T09:42:47;8.32;;;1.77;;
37851;SDS011;23691;52.486;4.650;2023-08-30T09:45:23;5.43;;;1.58;;
37851;SDS011;23691;52.486;4.650;2023-08-30T09:47:51;8.13;;;1.70;;
37851;SDS011;23691;52.486;4.650;2023-08-30T09:50:18;6.95;;;1.52;;
37851;SDS011;23691;52.486;4.650;2023-08-30T09:52:49;10.13;;;1.83;;
37851;SDS011;23691;52.486;4.650;2023-08-30T09:55:18;8.73;;;1.23;;
37851;SDS011;23691;52.486;4.650;2023-08-30T09:57:44;8.43;;;1.98;;
37851;SDS011;23691;52.486;4.650;2023-08-30T10:02:55;14.95;;;2.13;;
37851;SDS011;23691;52.486;4.650;2023-08-30T10:05:23;9.02;;;1.95;;
37851;SDS011;23691;52.486;4.650;2023-08-30T10:07:49;13.20;;;2.25;;
37851;SDS011;23691;52.486;4.650;2023-08-30T10:10:20;13.02;;;2.08;;
37851;SDS011;23691;52.486;4.650;2023-08-30T10:12:50;15.45;;;2.00;;
37851;SDS011;23691;52.486;4.650;2023-08-30T10:15:19;13.15;;;2.30;;
37851;SDS011;23691;52.486;4.650;2023-08-30T10:17:47;9.50;;;2.20;;
37851;SDS011;23691;52.486;4.650;2023-08-30T10:20:19;14.82;;;2.05;;
37851;SDS011;23691;52.486;4.650;2023-08-30T10:22:45;9.45;;;2.08;;
37851;SDS011;23691;52.486;4.650;2023-08-30T10:25:24;12.52;;;1.85;;
37851;SDS011;23691;52.486;4.650;2023-08-30T10:27:55;14.70;;;2.38;;
37851;SDS011;23691;52.486;4.650;2023-08-30T10:30:25;12.27;;;2.25;;
37851;SDS011;23691;52.486;4.650;2023-08-30T10:32:51;11.02;;;2.20;;
37851;SDS011;23691;52.486;4.650;2023-08-30T10:35:18;13.27;;;2.20;;
37851;SDS011;23691;52.486;4.650;2023-08-30T10:37:56;13.43;;;2.17;;
37851;SDS011;23691;52.486;4.650;2023-08-30T10:40:24;12.48;;;2.00;;
37851;SDS011;23691;52.486;4.650;2023-08-30T10:43:02;8.35;;;1.80;;
37851;SDS011;23691;52.486;4.650;2023-08-30T10:45:29;8.85;;;1.98;;
37851;SDS011;23691;52.486;4.650;2023-08-30T10:47:56;10.93;;;1.92;;
37851;SDS011;23691;52.486;4.650;2023-08-30T10:50:34;14.10;;;2.17;;
37851;SDS011;23691;52.486;4.650;2023-08-30T10:53:00;10.77;;;1.83;;
37851;SDS011;23691;52.486;4.650;2023-08-30T10:55:26;10.68;;;1.67;;
37851;SDS011;23691;52.486;4.650;2023-08-30T10:57:59;9.98;;;1.90;;
37851;SDS011;23691;52.486;4.650;2023-08-30T11:00:27;10.20;;;1.70;;
37851;SDS011;23691;52.486;4.650;2023-08-30T11:03:14;9.75;;;1.90;;
37851;SDS011;23691;52.486;4.650;2023-08-30T11:05:40;9.32;;;1.70;;
37851;SDS011;23691;52.486;4.650;2023-08-30T11:08:10;9.88;;;1.85;;
37851;SDS011;23691;52.486;4.650;2023-08-30T11:10:35;8.10;;;1.45;;
37851;SDS011;23691;52.486;4.650;2023-08-30T11:13:01;14.30;;;2.10;;
37851;SDS011;23691;52.486;4.650;2023-08-30T11:15:27;11.63;;;1.85;;
37851;SDS011;23691;52.486;4.650;2023-08-30T11:18:01;11.27;;;1.80;;
37851;SDS011;23691;52.486;4.650;2023-08-30T11:20:27;9.85;;;1.92;;
37851;SDS011;23691;52.486;4.650;2023-08-30T11:22:56;11.40;;;1.90;;
37851;SDS011;23691;52.486;4.650;2023-08-30T11:25:21;10.75;;;1.92;;
37851;SDS011;23691;52.486;4.650;2023-08-30T11:27:47;13.10;;;1.80;;
37851;SDS011;23691;52.486;4.650;2023-08-30T11:30:12;13.63;;;1.88;;
37851;SDS011;23691;52.486;4.650;2023-08-30T11:32:38;9.48;;;1.88;;
37851;SDS011;23691;52.486;4.650;2023-08-30T11:35:05;10.57;;;1.80;;
37851;SDS011;23691;52.486;4.650;2023-08-30T11:37:31;8.90;;;1.48;;
37851;SDS011;23691;52.486;4.650;2023-08-30T11:39:58;11.15;;;1.40;;
37851;SDS011;23691;52.486;4.650;2023-08-30T11:42:25;7.17;;;1.40;;
37851;SDS011;23691;52.486;4.650;2023-08-30T11:44:51;7.80;;;1.52;;
37851;SDS011;23691;52.486;4.650;2023-08-30T11:47:20;7.32;;;1.35;;
37851;SDS011;23691;52.486;4.650;2023-08-30T11:49:57;8.98;;;1.27;;
37851;SDS011;23691;52.486;4.650;2023-08-30T11:52:24;7.78;;;1.38;;
37851;SDS011;23691;52.486;4.650;2023-08-30T11:54:51;9.82;;;1.35;;
37851;SDS011;23691;52.486;4.650;2023-08-30T11:57:17;9.63;;;1.40;;
37851;SDS011;23691;52.486;4.650;2023-08-30T11:59:43;9.00;;;1.38;;
37851;SDS011;23691;52.486;4.650;2023-08-30T12:02:09;7.68;;;1.85;;
37851;SDS011;23691;52.486;4.650;2023-08-30T12:04:46;8.50;;;1.60;;
37851;SDS011;23691;52.486;4.650;2023-08-30T12:07:22;8.00;;;1.48;;
37851;SDS011;23691;52.486;4.650;2023-08-30T12:10:03;4.72;;;1.00;;
37851;SDS011;23691;52.486;4.650;2023-08-30T12:12:29;6.90;;;1.17;;
37851;SDS011;23691;52.486;4.650;2023-08-30T12:14:55;12.48;;;1.50;;
37851;SDS011;23691;52.486;4.650;2023-08-30T12:17:26;8.18;;;1.50;;
37851;SDS011;23691;52.486;4.650;2023-08-30T12:19:58;8.48;;;1.30;;
37851;SDS011;23691;52.486;4.650;2023-08-30T12:22:47;6.03;;;1.05;;
37851;SDS011;23691;52.486;4.650;2023-08-30T12:27:48;7.88;;;1.27;;
37851;SDS011;23691;52.486;4.650;2023-08-30T12:30:21;5.30;;;1.15;;
37851;SDS011;23691;52.486;4.650;2023-08-30T12:32:48;10.15;;;1.58;;
37851;SDS011;23691;52.486;4.650;2023-08-30T12:35:14;12.05;;;1.60;;
37851;SDS011;23691;52.486;4.650;2023-08-30T12:37:40;14.95;;;1.60;;
37851;SDS011;23691;52.486;4.650;2023-08-30T12:40:06;11.95;;;1.70;;
37851;SDS011;23691;52.486;4.650;2023-08-30T12:42:32;10.48;;;1.45;;
37851;SDS011;23691;52.486;4.650;2023-08-30T12:44:58;12.15;;;1.80;;
37851;SDS011;23691;52.486;4.650;2023-08-30T12:47:26;13.63;;;2.10;;
37851;SDS011;23691;52.486;4.650;2023-08-30T12:49:51;13.05;;;1.98;;
37851;SDS011;23691;52.486;4.650;2023-08-30T12:52:17;11.18;;;1.30;;
37851;SDS011;23691;52.486;4.650;2023-08-30T12:54:42;12.75;;;1.50;;
37851;SDS011;23691;52.486;4.650;2023-08-30T12:57:16;8.50;;;1.20;;
37851;SDS011;23691;52.486;4.650;2023-08-30T12:59:42;7.57;;;1.17;;
37851;SDS011;23691;52.486;4.650;2023-08-30T13:02:07;9.98;;;1.45;;
37851;SDS011;23691;52.486;4.650;2023-08-30T13:04:33;8.75;;;1.55;;
37851;SDS011;23691;52.486;4.650;2023-08-30T13:06:59;9.90;;;1.33;;
37851;SDS011;23691;52.486;4.650;2023-08-30T13:09:24;8.48;;;1.33;;
37851;SDS011;23691;52.486;4.650;2023-08-30T13:11:50;6.15;;;1.20;;
37851;SDS011;23691;52.486;4.650;2023-08-30T13:14:15;9.00;;;1.38;;
37851;SDS011;23691;52.486;4.650;2023-08-30T13:16:41;11.05;;;1.30;;
37851;SDS011;23691;52.486;4.650;2023-08-30T13:19:07;8.07;;;1.23;;
37851;SDS011;23691;52.486;4.650;2023-08-30T13:21:32;11.63;;;1.60;;
37851;SDS011;23691;52.486;4.650;2023-08-30T13:23:57;9.68;;;1.10;;
37851;SDS011;23691;52.486;4.650;2023-08-30T13:26:23;9.75;;;1.63;;
37851;SDS011;23691;52.486;4.650;2023-08-30T13:28:48;11.82;;;1.85;;
37851;SDS011;23691;52.486;4.650;2023-08-30T13:31:14;9.13;;;1.30;;
37851;SDS011;23691;52.486;4.650;2023-08-30T13:33:39;8.65;;;1.33;;
37851;SDS011;23691;52.486;4.650;2023-08-30T13:36:05;8.63;;;1.20;;
37851;SDS011;23691;52.486;4.650;2023-08-30T13:38:30;8.80;;;1.42;;
37851;SDS011;23691;52.486;4.650;2023-08-30T13:41:00;5.88;;;1.15;;
37851;SDS011;23691;52.486;4.650;2023-08-30T13:43:25;8.60;;;1.35;;
37851;SDS011;23691;52.486;4.650;2023-08-30T13:45:58;12.45;;;1.75;;
37851;SDS011;23691;52.486;4.650;2023-08-30T13:48:24;6.75;;;1.23;;
37851;SDS011;23691;52.486;4.650;2023-08-30T13:50:49;7.50;;;1.30;;
37851;SDS011;23691;52.486;4.650;2023-08-30T13:53:15;8.27;;;1.30;;
37851;SDS011;23691;52.486;4.650;2023-08-30T13:55:44;5.90;;;1.00;;
37851;SDS011;23691;52.486;4.650;2023-08-30T13:58:11;12.02;;;1.33;;
37851;SDS011;23691;52.486;4.650;2023-08-30T14:00:36;7.13;;;1.27;;
37851;SDS011;23691;52.486;4.650;2023-08-30T14:03:02;9.30;;;1.23;;
37851;SDS011;23691;52.486;4.650;2023-08-30T14:05:28;5.07;;;0.93;;
37851;SDS011;23691;52.486;4.650;2023-08-30T14:07:53;5.53;;;1.10;;
37851;SDS011;23691;52.486;4.650;2023-08-30T14:10:19;6.93;;;0.93;;
37851;SDS011;23691;52.486;4.650;2023-08-30T14:12:44;6.38;;;0.90;;
37851;SDS011;23691;52.486;4.650;2023-08-30T14:15:10;8.00;;;1.20;;
37851;SDS011;23691;52.486;4.650;2023-08-30T14:17:35;7.65;;;1.10;;
37851;SDS011;23691;52.486;4.650;2023-08-30T14:20:01;6.72;;;1.35;;
37851;SDS011;23691;52.486;4.650;2023-08-30T14:22:26;5.95;;;0.90;;
37851;SDS011;23691;52.486;4.650;2023-08-30T14:24:51;8.48;;;1.05;;
37851;SDS011;23691;52.486;4.650;2023-08-30T14:27:17;5.90;;;0.75;;
37851;SDS011;23691;52.486;4.650;2023-08-30T14:29:42;8.07;;;1.20;;
37851;SDS011;23691;52.486;4.650;2023-08-30T14:32:08;6.45;;;1.10;;
37851;SDS011;23691;52.486;4.650;2023-08-30T14:34:33;8.20;;;1.17;;
37851;SDS011;23691;52.486;4.650;2023-08-30T14:36:59;6.07;;;0.98;;
37851;SDS011;23691;52.486;4.650;2023-08-30T14:39:24;7.32;;;1.27;;
37851;SDS011;23691;52.486;4.650;2023-08-30T14:41:51;8.63;;;1.10;;
37851;SDS011;23691;52.486;4.650;2023-08-30T14:44:17;9.20;;;1.30;;
37851;SDS011;23691;52.486;4.650;2023-08-30T14:46:42;8.65;;;1.33;;
37851;SDS011;23691;52.486;4.650;2023-08-30T14:49:08;6.03;;;1.35;;
37851;SDS011;23691;52.486;4.650;2023-08-30T14:51:33;7.28;;;1.30;;
37851;SDS011;23691;52.486;4.650;2023-08-30T14:53:59;7.53;;;1.40;;
37851;SDS011;23691;52.486;4.650;2023-08-30T14:56:24;8.65;;;1.05;;
37851;SDS011;23691;52.486;4.650;2023-08-30T14:58:50;7.65;;;1.08;;
37851;SDS011;23691;52.486;4.650;2023-08-30T15:04:13;7.18;;;1.20;;
37851;SDS011;23691;52.486;4.650;2023-08-30T15:06:48;8.20;;;1.23;;
37851;SDS011;23691;52.486;4.650;2023-08-30T15:09:13;10.05;;;1.10;;
37851;SDS011;23691;52.486;4.650;2023-08-30T15:11:41;8.18;;;1.33;;
37851;SDS011;23691;52.486;4.650;2023-08-30T15:14:07;5.32;;;0.90;;
37851;SDS011;23691;52.486;4.650;2023-08-30T15:16:33;5.97;;;1.33;;
37851;SDS011;23691;52.486;4.650;2023-08-30T15:18:58;6.63;;;1.23;;
37851;SDS011;23691;52.486;4.650;2023-08-30T15:21:24;5.40;;;1.40;;